createdAt,value
2019-03-10T00:00:11.857Z,2.63
2019-03-10T00:02:40.256Z,3.73
2019-03-10T00:05:08.685Z,2.70
2019-03-10T00:07:37.438Z,4.30
2019-03-10T00:10:09.180Z,2.90
2019-03-10T00:12:37.596Z,1.97
2019-03-10T00:15:09.008Z,3.77
2019-03-10T00:17:37.429Z,3.77
2019-03-10T00:20:08.168Z,5.57
2019-03-10T00:22:36.585Z,7.57
2019-03-10T00:25:24.336Z,4.63
2019-03-10T00:27:53.045Z,1.73
2019-03-10T00:30:21.471Z,3.00
2019-03-10T00:32:49.943Z,4.47
2019-03-10T00:35:18.344Z,2.00
2019-03-10T00:37:46.764Z,1.67
2019-03-10T00:40:40.296Z,2.77
2019-03-10T00:43:28.195Z,2.93
2019-03-10T00:46:17.476Z,1.60
2019-03-10T00:49:15.812Z,2.47
2019-03-10T00:51:56.139Z,2.57
2019-03-10T00:54:24.575Z,2.77
2019-03-10T00:56:53.077Z,1.83
2019-03-10T00:59:21.558Z,3.90
2019-03-10T01:01:50.247Z,2.80
2019-03-10T01:04:18.664Z,2.00
2019-03-10T01:06:52.534Z,2.47
2019-03-10T01:09:20.948Z,2.57
2019-03-10T01:11:49.623Z,2.43
2019-03-10T01:14:18.041Z,3.40
2019-03-10T01:16:47.165Z,3.40
2019-03-10T01:19:17.424Z,2.30
2019-03-10T01:21:48.181Z,3.23
2019-03-10T01:24:16.591Z,3.43
2019-03-10T01:26:45.293Z,2.40
2019-03-10T01:29:13.769Z,2.97
2019-03-10T01:32:05.952Z,2.27
2019-03-10T01:34:55.075Z,1.87
2019-03-10T01:37:23.498Z,5.50
2019-03-10T01:39:51.902Z,3.63
2019-03-10T01:42:20.316Z,1.87
2019-03-10T01:44:48.719Z,7.20
2019-03-10T01:47:17.489Z,4.63
2019-03-10T01:49:45.913Z,3.57
2019-03-10T01:52:14.359Z,4.53
2019-03-10T01:54:42.815Z,1.87
2019-03-10T01:57:11.245Z,2.00
2019-03-10T01:59:39.628Z,2.53
2019-03-10T02:02:08.048Z,3.17
2019-03-10T02:04:48.765Z,3.53
2019-03-10T02:07:17.180Z,2.33
2019-03-10T02:09:45.611Z,2.37
2019-03-10T02:12:14.035Z,2.90
2019-03-10T02:14:42.452Z,2.33
2019-03-10T02:17:10.873Z,3.73
2019-03-10T02:19:39.360Z,2.80
2019-03-10T02:22:07.772Z,1.53
2019-03-10T02:24:36.188Z,2.57
2019-03-10T02:27:04.675Z,2.77
2019-03-10T02:29:33.090Z,3.70
2019-03-10T02:32:01.824Z,1.47
2019-03-10T02:34:30.262Z,1.77
2019-03-10T02:36:59.001Z,3.00
2019-03-10T02:39:27.462Z,2.13
2019-03-10T02:41:55.896Z,2.27
2019-03-10T02:44:24.406Z,1.40
2019-03-10T02:46:52.825Z,1.77
2019-03-10T02:49:21.253Z,1.93
2019-03-10T02:51:49.654Z,2.67
2019-03-10T02:54:18.108Z,1.37
2019-03-10T02:56:46.522Z,1.40
2019-03-10T02:59:15.209Z,1.33
2019-03-10T03:01:43.926Z,0.90
2019-03-10T03:04:12.353Z,1.23
2019-03-10T03:06:40.763Z,1.27
2019-03-10T03:09:09.178Z,1.07
2019-03-10T03:11:37.576Z,1.90
2019-03-10T03:14:06.005Z,1.13
2019-03-10T03:16:34.666Z,1.00
2019-03-10T03:19:03.085Z,1.37
2019-03-10T03:21:42.354Z,0.80
2019-03-10T03:24:01.993Z,0.93
2019-03-10T03:26:30.436Z,1.27
2019-03-10T03:28:59.267Z,1.60
2019-03-10T03:31:27.753Z,0.60
2019-03-10T03:33:56.226Z,0.83
2019-03-10T03:36:30.079Z,1.20
2019-03-10T03:39:21.394Z,0.50
2019-03-10T03:41:49.899Z,1.33
2019-03-10T03:44:18.691Z,0.80
2019-03-10T03:46:47.387Z,0.60
2019-03-10T03:49:15.800Z,0.90
2019-03-10T03:51:44.221Z,1.90
2019-03-10T03:54:12.639Z,3.30
2019-03-10T03:56:41.062Z,2.57
2019-03-10T03:59:09.549Z,0.60
2019-03-10T04:01:45.296Z,2.07
2019-03-10T04:04:13.723Z,0.70
2019-03-10T04:06:42.117Z,0.70
2019-03-10T04:09:10.537Z,0.50
2019-03-10T04:11:38.929Z,0.90
2019-03-10T04:14:07.364Z,0.60
2019-03-10T04:16:35.762Z,1.33
2019-03-10T04:19:04.174Z,1.00
2019-03-10T04:21:32.580Z,0.80
2019-03-10T04:24:01.001Z,0.97
2019-03-10T04:26:29.412Z,3.10
2019-03-10T04:28:58.121Z,1.47
2019-03-10T04:31:26.613Z,1.30
2019-03-10T04:33:55.132Z,1.73
2019-03-10T04:36:23.544Z,2.30
2019-03-10T04:38:51.973Z,0.83
2019-03-10T04:41:20.367Z,1.10
2019-03-10T04:43:49.057Z,0.80
2019-03-10T04:46:17.893Z,2.20
2019-03-10T04:48:46.413Z,0.70
2019-03-10T04:51:14.833Z,1.43
2019-03-10T04:53:43.235Z,0.70
2019-03-10T04:58:51.972Z,1.20
2019-03-10T05:01:20.956Z,0.90
2019-03-10T05:03:49.353Z,2.90
2019-03-10T05:06:18.021Z,3.03
2019-03-10T05:08:46.426Z,3.53
2019-03-10T05:11:14.836Z,1.00
2019-03-10T05:13:43.270Z,2.13
2019-03-10T05:16:11.756Z,1.20
2019-03-10T05:18:40.163Z,1.63
2019-03-10T05:21:08.584Z,3.07
2019-03-10T05:23:40.964Z,1.10
2019-03-10T05:26:09.436Z,1.33
2019-03-10T05:28:40.684Z,1.43
2019-03-10T05:31:09.096Z,1.20
2019-03-10T05:33:37.522Z,1.03
2019-03-10T05:36:05.942Z,1.57
2019-03-10T05:38:34.340Z,2.97
2019-03-10T05:41:02.755Z,1.30
2019-03-10T05:43:31.160Z,1.90
2019-03-10T05:45:59.576Z,2.97
2019-03-10T05:48:27.980Z,1.83
2019-03-10T05:50:56.779Z,1.47
2019-03-10T05:53:25.221Z,1.57
2019-03-10T05:55:53.641Z,2.23
2019-03-10T05:58:22.070Z,1.60
2019-03-10T06:00:50.493Z,1.90
2019-03-10T06:03:18.917Z,2.03
2019-03-10T06:05:47.332Z,3.00
2019-03-10T06:08:15.735Z,3.77
2019-03-10T06:10:44.151Z,3.00
2019-03-10T06:13:12.556Z,3.57
2019-03-10T06:15:41.224Z,5.17
2019-03-10T06:18:13.471Z,2.80
2019-03-10T06:20:39.804Z,3.20
2019-03-10T06:23:08.229Z,3.87
2019-03-10T06:25:36.641Z,2.53
2019-03-10T06:28:05.112Z,2.83
2019-03-10T06:30:33.963Z,2.30
2019-03-10T06:33:02.371Z,2.20
2019-03-10T06:35:30.793Z,2.30
2019-03-10T06:37:59.258Z,4.57
2019-03-10T06:40:32.243Z,2.47
2019-03-10T06:42:58.223Z,2.40
2019-03-10T06:45:26.898Z,2.30
2019-03-10T06:47:55.320Z,4.00
2019-03-10T06:50:23.756Z,2.50
2019-03-10T06:52:52.222Z,1.80
2019-03-10T06:55:20.642Z,1.90
2019-03-10T06:57:49.049Z,2.27
2019-03-10T07:00:17.725Z,2.47
2019-03-10T07:03:05.623Z,3.10
2019-03-10T07:05:34.032Z,3.03
2019-03-10T07:08:02.436Z,2.77
2019-03-10T07:10:30.857Z,3.13
2019-03-10T07:12:59.272Z,3.13
2019-03-10T07:15:27.761Z,2.50
2019-03-10T07:17:56.196Z,4.70
2019-03-10T07:20:24.610Z,3.53
2019-03-10T07:22:53.012Z,2.73
2019-03-10T07:25:21.435Z,1.20
2019-03-10T07:27:51.472Z,1.00
2019-03-10T07:30:38.107Z,1.33
2019-03-10T07:33:10.896Z,1.43
2019-03-10T07:35:57.650Z,1.17
2019-03-10T07:38:46.072Z,1.00
2019-03-10T07:41:53.740Z,0.70
2019-03-10T07:44:23.780Z,0.60
2019-03-10T07:47:10.738Z,0.77
2019-03-10T07:49:55.844Z,1.83
2019-03-10T07:52:25.892Z,0.67
2019-03-10T07:55:12.333Z,1.00
2019-03-10T07:57:42.396Z,1.50
2019-03-10T08:00:12.512Z,0.50
2019-03-10T08:02:54.606Z,2.20
2019-03-10T08:05:33.088Z,0.67
2019-03-10T08:08:19.479Z,0.83
2019-03-10T08:11:08.137Z,0.57
2019-03-10T08:13:44.502Z,0.60
2019-03-10T08:16:17.236Z,0.40
2019-03-10T08:18:53.000Z,0.80
2019-03-10T08:21:23.131Z,0.60
2019-03-10T08:24:02.497Z,0.63
2019-03-10T08:26:32.559Z,0.50
2019-03-10T08:29:11.688Z,0.37
2019-03-10T08:31:50.816Z,0.50
2019-03-10T08:34:30.208Z,2.63
2019-03-10T08:37:18.948Z,1.90
2019-03-10T08:39:51.809Z,1.57
2019-03-10T08:42:38.317Z,9.23
2019-03-10T08:45:09.733Z,1.23
2019-03-10T08:47:42.705Z,0.40
2019-03-10T08:50:29.494Z,0.40
2019-03-10T08:53:14.877Z,0.50
2019-03-10T08:56:01.585Z,0.77
2019-03-10T08:58:43.452Z,0.83
2019-03-10T09:01:22.412Z,0.57
2019-03-10T09:04:01.674Z,1.00
2019-03-10T09:06:44.744Z,0.80
2019-03-10T09:09:17.634Z,0.60
2019-03-10T09:12:04.119Z,0.77
2019-03-10T09:14:49.344Z,1.03
2019-03-10T09:17:19.405Z,0.50
2019-03-10T09:19:58.486Z,1.47
2019-03-10T09:22:34.469Z,0.50
2019-03-10T09:25:16.980Z,2.87
2019-03-10T09:27:50.016Z,1.07
2019-03-10T09:30:38.231Z,1.03
2019-03-10T09:33:14.073Z,1.43
2019-03-10T09:35:56.339Z,0.70
2019-03-10T09:38:35.178Z,1.97
2019-03-10T09:41:21.448Z,0.50
2019-03-10T09:44:00.576Z,1.30
2019-03-10T09:46:30.626Z,0.70
2019-03-10T09:49:09.329Z,0.40
2019-03-10T09:51:48.378Z,1.97
2019-03-10T09:54:35.035Z,0.60
2019-03-10T09:57:23.478Z,0.77
2019-03-10T10:00:06.212Z,0.53
2019-03-10T10:02:48.343Z,0.50
2019-03-10T10:05:24.085Z,0.50
2019-03-10T10:08:12.280Z,2.33
2019-03-10T10:10:45.398Z,2.27
2019-03-10T10:13:21.269Z,0.50
2019-03-10T10:15:51.373Z,0.60
2019-03-10T10:18:21.441Z,0.73
2019-03-10T10:21:00.533Z,0.50
2019-03-10T10:23:33.473Z,0.40
2019-03-10T10:26:03.593Z,0.40
2019-03-10T10:28:36.510Z,0.50
2019-03-10T10:31:22.716Z,0.40
2019-03-10T10:34:07.752Z,0.50
2019-03-10T10:36:54.476Z,0.37
2019-03-10T10:39:24.613Z,1.33
2019-03-10T10:42:06.931Z,0.40
2019-03-10T10:44:40.310Z,0.40
2019-03-10T10:47:13.505Z,1.13
2019-03-10T10:49:52.910Z,0.40
2019-03-10T10:52:39.364Z,0.20
2019-03-10T10:55:30.457Z,0.60
2019-03-10T10:58:15.556Z,0.37
2019-03-10T11:00:45.657Z,0.57
2019-03-10T11:03:15.705Z,0.30
2019-03-10T11:05:51.677Z,0.40
2019-03-10T11:08:21.765Z,0.40
2019-03-10T11:10:51.838Z,0.40
2019-03-10T11:13:38.822Z,0.50
2019-03-10T11:16:08.903Z,0.40
2019-03-10T11:18:47.712Z,0.40
2019-03-10T11:21:18.057Z,0.47
2019-03-10T11:23:48.111Z,0.87
2019-03-10T11:26:18.534Z,0.40
2019-03-10T11:28:48.650Z,0.80
2019-03-10T11:31:24.612Z,0.60
2019-03-10T11:33:54.678Z,0.77
2019-03-10T11:36:33.647Z,0.60
2019-03-10T11:39:06.433Z,0.30
2019-03-10T11:41:39.532Z,0.50
2019-03-10T11:44:15.316Z,1.37
2019-03-10T11:46:54.420Z,1.13
2019-03-10T11:49:24.489Z,0.30
2019-03-10T11:52:11.005Z,0.40
2019-03-10T11:54:57.409Z,0.30
2019-03-10T11:57:33.491Z,0.70
2019-03-10T12:00:03.549Z,0.30
2019-03-10T12:02:33.616Z,0.37
2019-03-10T12:05:12.796Z,1.80
2019-03-10T12:07:55.341Z,0.40
2019-03-10T12:10:23.761Z,0.40
2019-03-10T12:12:52.182Z,0.40
2019-03-10T12:15:20.605Z,0.37
2019-03-10T12:17:49.015Z,0.57
2019-03-10T12:20:17.432Z,0.40
2019-03-10T12:22:45.843Z,1.63
2019-03-10T12:25:14.398Z,1.70
2019-03-10T12:27:42.817Z,0.40
2019-03-10T12:30:13.419Z,0.50
2019-03-10T12:32:41.838Z,1.27
2019-03-10T12:35:10.289Z,0.50
2019-03-10T12:37:38.698Z,0.83
2019-03-10T12:40:12.525Z,0.43
2019-03-10T12:42:40.941Z,0.60
2019-03-10T12:45:11.010Z,0.63
2019-03-10T12:47:39.412Z,0.77
2019-03-10T12:50:10.658Z,2.30
2019-03-10T12:52:39.368Z,0.50
2019-03-10T12:55:09.583Z,0.50
2019-03-10T12:57:38.009Z,0.30
2019-03-10T13:00:13.467Z,1.23
2019-03-10T13:02:42.113Z,0.60
2019-03-10T13:05:13.256Z,0.43
2019-03-10T13:07:44.609Z,0.37
2019-03-10T13:10:20.067Z,0.90
2019-03-10T13:12:48.501Z,0.97
2019-03-10T13:15:16.909Z,3.27
2019-03-10T13:18:04.674Z,0.80
2019-03-10T13:20:52.763Z,1.73
2019-03-10T13:23:21.202Z,1.63
2019-03-10T13:25:49.748Z,1.27
2019-03-10T13:28:18.164Z,1.53
2019-03-10T13:30:48.173Z,0.57
2019-03-10T13:33:16.601Z,2.03
2019-03-10T13:35:45.014Z,0.50
2019-03-10T13:38:13.437Z,1.87
2019-03-10T13:40:41.853Z,1.20
2019-03-10T13:43:10.362Z,1.73
2019-03-10T13:45:38.782Z,2.17
2019-03-10T13:48:16.119Z,1.53
2019-03-10T13:51:04.130Z,2.33
2019-03-10T13:53:32.621Z,1.47
2019-03-10T13:56:01.033Z,4.33
2019-03-10T13:58:29.453Z,1.07
2019-03-10T14:00:57.870Z,1.67
2019-03-10T14:03:26.639Z,0.93
2019-03-10T14:05:55.124Z,1.83
2019-03-10T14:08:23.553Z,2.20
2019-03-10T14:10:51.964Z,1.43
2019-03-10T14:13:20.396Z,1.87
2019-03-10T14:15:48.796Z,1.67
2019-03-10T14:18:17.237Z,1.40
2019-03-10T14:20:45.669Z,2.13
2019-03-10T14:23:14.156Z,2.03
2019-03-10T14:25:42.822Z,1.53
2019-03-10T14:28:11.662Z,2.93
2019-03-10T14:30:40.072Z,2.80
2019-03-10T14:33:08.557Z,3.20
2019-03-10T14:35:36.970Z,4.93
2019-03-10T14:38:05.431Z,2.53
2019-03-10T14:40:33.961Z,1.93
2019-03-10T14:43:02.400Z,3.93
2019-03-10T14:45:30.882Z,2.17
2019-03-10T14:47:59.308Z,3.67
2019-03-10T14:50:27.722Z,2.73
2019-03-10T14:52:56.160Z,3.33
2019-03-10T14:55:24.577Z,3.80
2019-03-10T14:57:53.065Z,1.33
2019-03-10T15:00:25.867Z,3.87
2019-03-10T15:02:54.366Z,2.23
2019-03-10T15:05:22.781Z,4.40
2019-03-10T15:07:51.207Z,3.33
2019-03-10T15:10:19.753Z,3.17
2019-03-10T15:12:48.177Z,3.30
2019-03-10T15:15:22.810Z,2.83
2019-03-10T15:17:50.633Z,2.57
2019-03-10T15:20:21.436Z,3.30
2019-03-10T15:22:49.603Z,4.60
2019-03-10T15:25:19.360Z,3.13
2019-03-10T15:27:47.756Z,2.97
2019-03-10T15:30:18.779Z,2.90
2019-03-10T15:32:47.220Z,4.13
2019-03-10T15:35:15.692Z,4.90
2019-03-10T15:37:44.104Z,8.43
2019-03-10T15:40:16.976Z,10.03
2019-03-10T15:42:45.385Z,3.57
2019-03-10T15:45:15.422Z,4.23
2019-03-10T15:47:43.895Z,9.03
2019-03-10T15:50:33.421Z,4.93
2019-03-10T15:53:01.847Z,8.77
2019-03-10T15:55:30.330Z,6.40
2019-03-10T15:57:58.751Z,5.70
2019-03-10T16:00:27.920Z,10.13
2019-03-10T16:02:56.436Z,7.90
2019-03-10T16:05:24.942Z,6.60
2019-03-10T16:07:53.499Z,7.63
2019-03-10T16:10:21.949Z,11.10
2019-03-10T16:12:50.377Z,9.63
2019-03-10T16:15:23.697Z,7.03
2019-03-10T16:17:52.088Z,8.63
2019-03-10T16:20:20.512Z,7.87
2019-03-10T16:22:48.916Z,8.27
2019-03-10T16:25:18.889Z,8.23
2019-03-10T16:27:49.804Z,8.07
2019-03-10T16:30:26.268Z,7.77
2019-03-10T16:32:54.748Z,8.23
2019-03-10T16:35:23.193Z,8.30
2019-03-10T16:37:51.673Z,10.93
2019-03-10T16:40:21.331Z,14.37
2019-03-10T16:42:49.753Z,11.00
2019-03-10T16:45:20.296Z,7.20
2019-03-10T16:47:48.872Z,9.40
2019-03-10T16:50:24.674Z,4.87
2019-03-10T16:52:53.149Z,7.27
2019-03-10T16:55:21.638Z,8.03
2019-03-10T16:57:50.055Z,9.23
2019-03-10T17:00:21.644Z,9.47
2019-03-10T17:02:51.491Z,6.83
2019-03-10T17:05:21.036Z,9.23
2019-03-10T17:07:49.781Z,8.87
2019-03-10T17:10:37.565Z,9.43
2019-03-10T17:13:06.036Z,7.60
2019-03-10T17:15:34.461Z,8.53
2019-03-10T17:18:02.864Z,6.17
2019-03-10T17:20:31.566Z,9.70
2019-03-10T17:22:59.976Z,10.87
2019-03-10T17:25:28.737Z,9.13
2019-03-10T17:27:57.140Z,5.20
2019-03-10T17:30:26.511Z,13.10
2019-03-10T17:32:54.920Z,7.77
2019-03-10T17:35:23.413Z,11.23
2019-03-10T17:37:51.816Z,6.47
2019-03-10T17:40:39.925Z,7.93
2019-03-10T17:43:08.686Z,7.47
2019-03-10T17:45:37.166Z,10.07
2019-03-10T17:48:05.669Z,11.47
2019-03-10T17:50:34.445Z,4.80
2019-03-10T17:53:03.222Z,8.93
2019-03-10T17:55:31.641Z,10.63
2019-03-10T17:58:00.112Z,6.10
2019-03-10T18:00:30.172Z,5.70
2019-03-10T18:02:58.592Z,7.57
2019-03-10T18:05:27.000Z,9.40
2019-03-10T18:07:55.424Z,8.93
2019-03-10T18:10:23.839Z,6.70
2019-03-10T18:12:52.249Z,11.93
2019-03-10T18:15:20.994Z,9.00
2019-03-10T18:17:49.679Z,10.00
2019-03-10T18:20:37.429Z,8.07
2019-03-10T18:23:06.092Z,9.77
2019-03-10T18:25:34.782Z,8.87
2019-03-10T18:28:03.217Z,9.50
2019-03-10T18:30:31.943Z,5.57
2019-03-10T18:33:00.350Z,6.03
2019-03-10T18:35:28.769Z,7.27
2019-03-10T18:37:57.178Z,5.17
2019-03-10T18:40:27.920Z,3.40
2019-03-10T18:42:56.336Z,3.87
2019-03-10T18:45:24.805Z,5.30
2019-03-10T18:47:53.565Z,5.73
2019-03-10T18:50:23.617Z,7.30
2019-03-10T18:52:52.042Z,6.00
2019-03-10T18:55:20.533Z,4.33
2019-03-10T18:57:48.949Z,4.13
2019-03-10T19:00:45.165Z,3.40
2019-03-10T19:03:13.877Z,3.63
2019-03-10T19:05:42.298Z,4.73
2019-03-10T19:08:10.713Z,3.20
2019-03-10T19:10:39.388Z,6.97
2019-03-10T19:13:08.076Z,6.00
2019-03-10T19:15:36.560Z,5.07
2019-03-10T19:18:05.239Z,6.37
2019-03-10T19:20:33.661Z,1.93
2019-03-10T19:23:02.067Z,3.03
2019-03-10T19:25:30.480Z,5.83
2019-03-10T19:27:58.945Z,3.73
2019-03-10T19:30:27.357Z,7.10
2019-03-10T19:32:55.771Z,9.20
2019-03-10T19:35:24.265Z,8.97
2019-03-10T19:37:52.685Z,7.40
2019-03-10T19:40:22.436Z,11.37
2019-03-10T19:42:50.937Z,9.37
2019-03-10T19:45:20.585Z,8.77
2019-03-10T19:47:49.019Z,10.90
2019-03-10T19:50:23.103Z,7.90
2019-03-10T19:52:51.533Z,9.30
2019-03-10T19:55:19.944Z,11.23
2019-03-10T19:57:48.368Z,5.50
2019-03-10T20:00:18.983Z,6.50
2019-03-10T20:02:47.405Z,8.83
2019-03-10T20:05:15.964Z,13.37
2019-03-10T20:07:45.020Z,8.67
2019-03-10T20:10:22.593Z,9.47
2019-03-10T20:12:51.012Z,10.83
2019-03-10T20:15:22.935Z,8.83
2019-03-10T20:17:51.352Z,8.47
2019-03-10T20:20:30.880Z,12.27
2019-03-10T20:23:01.179Z,5.80
2019-03-10T20:25:29.502Z,7.93
2019-03-10T20:27:57.940Z,6.90
2019-03-10T20:30:27.402Z,10.80
2019-03-10T20:32:55.905Z,11.40
2019-03-10T20:35:24.308Z,7.97
2019-03-10T20:37:52.727Z,8.37
2019-03-10T20:40:22.667Z,7.80
2019-03-10T20:42:51.100Z,8.27
2019-03-10T20:45:19.583Z,9.47
2019-03-10T20:47:48.014Z,5.10
2019-03-10T20:50:18.633Z,11.03
2019-03-10T20:52:47.052Z,5.60
2019-03-10T20:55:16.032Z,8.57
2019-03-10T20:57:44.991Z,4.53
2019-03-10T21:00:19.123Z,8.07
2019-03-10T21:02:47.549Z,8.57
2019-03-10T21:05:15.960Z,11.00
2019-03-10T21:07:44.385Z,11.40
2019-03-10T21:10:17.857Z,6.10
2019-03-10T21:12:46.340Z,7.37
2019-03-10T21:15:35.614Z,14.07
2019-03-10T21:18:04.037Z,9.13
2019-03-10T21:20:32.458Z,7.43
2019-03-10T21:23:00.888Z,10.90
2019-03-10T21:25:49.775Z,8.40
2019-03-10T21:28:18.192Z,13.10
2019-03-10T21:30:46.862Z,6.23
2019-03-10T21:33:15.280Z,8.93
2019-03-10T21:35:43.683Z,8.13
2019-03-10T21:38:12.110Z,9.20
2019-03-10T21:40:40.529Z,15.47
2019-03-10T21:43:09.260Z,14.83
2019-03-10T21:45:37.676Z,8.93
2019-03-10T21:48:06.098Z,7.93
2019-03-10T21:50:34.517Z,13.53
2019-03-10T21:53:02.950Z,8.37
2019-03-10T21:55:31.020Z,10.27
2019-03-10T21:57:59.118Z,14.10
2019-03-10T22:00:27.544Z,10.13
2019-03-10T22:02:55.977Z,9.20
2019-03-10T22:05:24.396Z,8.07
2019-03-10T22:07:52.816Z,10.00
2019-03-10T22:10:28.749Z,12.40
2019-03-10T22:12:51.642Z,8.93
2019-03-10T22:15:20.916Z,8.50
2019-03-10T22:17:49.001Z,8.63
2019-03-10T22:20:17.448Z,12.20
2019-03-10T22:22:49.192Z,14.10
2019-03-10T22:25:15.934Z,11.30
2019-03-10T22:27:45.690Z,7.33
2019-03-10T22:30:22.188Z,10.67
2019-03-10T22:32:50.621Z,11.77
2019-03-10T22:35:19.030Z,12.40
2019-03-10T22:37:47.452Z,10.97
2019-03-10T22:40:19.564Z,11.17
2019-03-10T22:42:48.288Z,11.47
2019-03-10T22:45:17.732Z,12.97
2019-03-10T22:47:45.828Z,17.63
2019-03-10T22:50:15.199Z,8.47
2019-03-10T22:52:43.346Z,7.53
2019-03-10T22:55:12.024Z,13.87
2019-03-10T22:57:40.454Z,11.07
2019-03-10T23:00:24.167Z,11.07
2019-03-10T23:02:52.598Z,15.87
2019-03-10T23:05:21.015Z,12.47
2019-03-10T23:07:49.683Z,8.27
2019-03-10T23:10:18.088Z,7.43
2019-03-10T23:12:46.492Z,11.10
2019-03-10T23:15:14.931Z,7.57
2019-03-10T23:17:43.082Z,9.60
2019-03-10T23:20:12.661Z,10.47
2019-03-10T23:22:41.074Z,9.03
2019-03-10T23:25:09.741Z,10.67
2019-03-10T23:27:37.884Z,8.73
2019-03-10T23:30:17.332Z,7.97
2019-03-10T23:32:45.822Z,4.90
2019-03-10T23:35:14.403Z,7.63
2019-03-10T23:37:42.833Z,11.53
2019-03-10T23:40:13.756Z,6.30
2019-03-10T23:42:42.180Z,8.23
2019-03-10T23:45:16.635Z,7.63
2019-03-10T23:47:44.733Z,11.87
2019-03-10T23:50:16.357Z,10.30
2019-03-10T23:52:44.773Z,9.73
2019-03-10T23:55:13.230Z,9.47
2019-03-10T23:57:42.497Z,11.23
